createdAt,value
2022-10-06T00:00:53.688Z,19.38
2022-10-06T00:03:23.994Z,21.38
2022-10-06T00:05:52.565Z,21.00
2022-10-06T00:08:20.514Z,19.37
2022-10-06T00:10:49.914Z,21.03
2022-10-06T00:13:17.830Z,20.63
2022-10-06T00:15:45.777Z,19.57
2022-10-06T00:18:13.736Z,22.17
2022-10-06T00:20:43.435Z,19.63
2022-10-06T00:23:11.639Z,19.17
2022-10-06T00:25:39.933Z,20.70
2022-10-06T00:28:10.094Z,20.57
2022-10-06T00:30:38.094Z,21.13
2022-10-06T00:33:06.106Z,20.90
2022-10-06T00:35:38.019Z,20.87
2022-10-06T00:38:06.268Z,20.73
2022-10-06T00:40:34.924Z,20.97
2022-10-06T00:43:05.187Z,20.30
2022-10-06T00:45:38.761Z,19.87
2022-10-06T00:48:11.680Z,19.17
2022-10-06T00:50:40.750Z,19.97
2022-10-06T00:53:09.155Z,19.43
2022-10-06T00:55:37.070Z,21.20
2022-10-06T00:58:06.562Z,21.50
2022-10-06T01:00:35.930Z,18.30
2022-10-06T01:03:08.630Z,19.87
2022-10-06T01:05:42.552Z,19.77
2022-10-06T01:08:10.718Z,20.20
2022-10-06T01:10:38.843Z,21.37
2022-10-06T01:13:07.725Z,20.80
2022-10-06T01:15:40.184Z,20.73
2022-10-06T01:18:13.897Z,23.07
2022-10-06T01:20:45.336Z,18.83
2022-10-06T01:23:15.399Z,22.93
2022-10-06T01:25:43.866Z,21.90
2022-10-06T01:28:14.121Z,20.10
2022-10-06T01:30:51.052Z,19.23
2022-10-06T01:33:19.784Z,22.27
2022-10-06T01:35:50.316Z,18.33
2022-10-06T01:38:22.076Z,18.90
2022-10-06T01:40:52.310Z,20.53
2022-10-06T01:43:20.325Z,20.23
2022-10-06T01:45:54.314Z,19.17
2022-10-06T01:48:22.698Z,20.63
2022-10-06T01:50:50.780Z,20.20
2022-10-06T01:53:20.403Z,19.70
2022-10-06T01:55:48.402Z,19.90
2022-10-06T01:58:16.356Z,19.97
2022-10-06T02:00:44.447Z,21.37
2022-10-06T02:03:12.637Z,19.77
2022-10-06T02:05:40.589Z,19.10
2022-10-06T02:08:09.634Z,19.80
2022-10-06T02:10:41.793Z,17.80
2022-10-06T02:13:09.817Z,19.90
2022-10-06T02:15:37.912Z,17.97
2022-10-06T02:18:05.931Z,18.73
2022-10-06T02:20:34.906Z,18.53
2022-10-06T02:23:02.948Z,20.47
2022-10-06T02:25:30.902Z,20.27
2022-10-06T02:28:00.652Z,19.40
2022-10-06T02:30:28.670Z,19.30
2022-10-06T02:32:56.684Z,18.53
2022-10-06T02:35:24.696Z,21.75
2022-10-06T02:37:52.688Z,18.93
2022-10-06T02:40:20.629Z,19.40
2022-10-06T02:42:49.022Z,18.93
2022-10-06T02:45:18.484Z,19.57
2022-10-06T02:47:46.538Z,20.57
2022-10-06T02:50:15.014Z,19.27
2022-10-06T02:52:43.519Z,20.38
2022-10-06T02:55:12.057Z,19.00
2022-10-06T02:57:40.082Z,19.58
2022-10-06T03:00:09.527Z,20.87
2022-10-06T03:02:39.151Z,20.10
2022-10-06T03:05:07.665Z,19.47
2022-10-06T03:07:35.613Z,20.47
2022-10-06T03:10:03.652Z,20.25
2022-10-06T03:12:32.934Z,18.70
2022-10-06T03:15:00.873Z,19.10
2022-10-06T03:17:28.914Z,19.25
2022-10-06T03:19:58.258Z,19.07
2022-10-06T03:22:26.254Z,22.03
2022-10-06T03:24:54.231Z,18.83
2022-10-06T03:27:22.193Z,17.77
2022-10-06T03:29:50.178Z,17.40
2022-10-06T03:32:18.155Z,18.90
2022-10-06T03:34:46.864Z,19.67
2022-10-06T03:37:19.153Z,17.53
2022-10-06T03:39:47.625Z,18.37
2022-10-06T03:42:15.596Z,21.50
2022-10-06T03:44:43.648Z,19.40
2022-10-06T03:47:16.840Z,19.97
2022-10-06T03:49:45.295Z,19.15
2022-10-06T03:52:13.208Z,18.65
2022-10-06T03:54:42.617Z,19.10
2022-10-06T03:57:10.571Z,20.40
2022-10-06T03:59:38.629Z,19.83
2022-10-06T04:02:06.631Z,20.20
2022-10-06T04:04:34.578Z,19.42
2022-10-06T04:07:02.496Z,21.07
2022-10-06T04:09:33.296Z,19.48
2022-10-06T04:12:02.702Z,21.97
2022-10-06T04:14:30.684Z,21.50
2022-10-06T04:17:01.593Z,19.07
2022-10-06T04:19:29.573Z,24.70
2022-10-06T04:21:57.589Z,19.83
2022-10-06T04:24:25.673Z,21.80
2022-10-06T04:26:53.783Z,20.83
2022-10-06T04:29:23.512Z,20.83
2022-10-06T04:31:51.633Z,21.52
2022-10-06T04:34:19.635Z,20.50
2022-10-06T04:36:47.565Z,21.38
2022-10-06T04:39:15.525Z,20.80
2022-10-06T04:41:47.451Z,21.00
2022-10-06T04:44:15.528Z,21.20
2022-10-06T04:46:45.463Z,20.43
2022-10-06T04:49:19.412Z,20.50
2022-10-06T04:51:50.686Z,19.92
2022-10-06T04:54:19.702Z,19.87
2022-10-06T04:56:47.763Z,19.67
2022-10-06T04:59:15.729Z,20.03
2022-10-06T05:01:45.924Z,18.77
2022-10-06T05:04:13.891Z,21.27
2022-10-06T05:06:43.549Z,18.73
2022-10-06T05:09:13.130Z,19.10
2022-10-06T05:11:41.115Z,19.10
2022-10-06T05:14:09.119Z,17.97
2022-10-06T05:16:38.261Z,18.80
2022-10-06T05:19:08.303Z,18.73
2022-10-06T05:21:36.676Z,19.53
2022-10-06T05:24:04.972Z,20.73
2022-10-06T05:26:34.855Z,19.10
2022-10-06T05:29:03.433Z,18.50
2022-10-06T05:31:32.937Z,19.13
2022-10-06T05:34:01.482Z,19.27
2022-10-06T05:36:34.043Z,19.87
2022-10-06T05:39:02.813Z,20.37
2022-10-06T05:41:32.601Z,18.37
2022-10-06T05:44:00.619Z,19.27
2022-10-06T05:46:30.362Z,19.13
2022-10-06T05:49:00.351Z,20.33
2022-10-06T05:51:32.443Z,23.40
2022-10-06T05:54:01.199Z,20.00
2022-10-06T05:56:30.969Z,24.97
2022-10-06T05:59:00.148Z,19.27
2022-10-06T06:01:30.129Z,21.00
2022-10-06T06:04:00.352Z,21.03
2022-10-06T06:06:31.804Z,20.57
2022-10-06T06:09:01.580Z,21.43
2022-10-06T06:11:31.646Z,22.37
2022-10-06T06:14:02.102Z,20.90
2022-10-06T06:16:31.122Z,20.83
2022-10-06T06:18:59.868Z,22.60
2022-10-06T06:21:28.948Z,25.10
2022-10-06T06:23:58.789Z,21.57
2022-10-06T06:26:28.949Z,23.63
2022-10-06T06:29:04.083Z,21.00
2022-10-06T06:31:34.017Z,23.37
2022-10-06T06:34:04.963Z,21.40
2022-10-06T06:36:35.862Z,19.57
2022-10-06T06:39:07.854Z,20.17
2022-10-06T06:41:38.278Z,19.97
2022-10-06T06:44:08.277Z,19.50
2022-10-06T06:46:39.021Z,19.60
2022-10-06T06:49:08.239Z,18.67
2022-10-06T06:51:38.410Z,20.88
2022-10-06T06:54:08.708Z,21.38
2022-10-06T06:56:38.729Z,21.55
2022-10-06T06:59:11.753Z,18.60
2022-10-06T07:01:46.020Z,20.80
2022-10-06T07:04:15.896Z,19.15
2022-10-06T07:06:57.024Z,18.13
2022-10-06T07:09:27.321Z,16.50
2022-10-06T07:11:56.152Z,19.13
2022-10-06T07:14:24.479Z,21.02
2022-10-06T07:17:10.171Z,18.90
2022-10-06T07:19:52.181Z,19.58
2022-10-06T07:22:41.037Z,19.25
2022-10-06T07:25:20.455Z,17.52
2022-10-06T07:27:52.460Z,16.98
2022-10-06T07:30:23.124Z,16.85
2022-10-06T07:32:52.597Z,17.23
2022-10-06T07:35:22.183Z,16.60
2022-10-06T07:37:51.373Z,16.23
2022-10-06T07:40:20.771Z,16.63
2022-10-06T07:42:52.334Z,14.18
2022-10-06T07:45:42.219Z,14.68
2022-10-06T07:48:14.438Z,18.58
2022-10-06T07:50:43.225Z,20.05
2022-10-06T07:53:11.273Z,13.88
2022-10-06T07:55:42.018Z,14.02
2022-10-06T07:58:14.106Z,18.05
2022-10-06T08:00:42.798Z,19.73
2022-10-06T08:03:12.405Z,18.45
2022-10-06T08:05:40.385Z,15.95
2022-10-06T08:08:08.418Z,18.00
2022-10-06T08:10:37.181Z,20.52
2022-10-06T08:13:10.423Z,18.92
2022-10-06T08:15:38.934Z,14.75
2022-10-06T08:18:21.277Z,17.05
2022-10-06T08:20:49.598Z,16.83
2022-10-06T08:23:17.755Z,13.98
2022-10-06T08:25:51.842Z,13.90
2022-10-06T08:28:22.267Z,16.00
2022-10-06T08:30:51.470Z,16.00
2022-10-06T08:33:21.595Z,19.05
2022-10-06T08:35:49.659Z,15.35
2022-10-06T08:38:18.185Z,16.33
2022-10-06T08:40:48.015Z,14.48
2022-10-06T08:43:23.179Z,14.50
2022-10-06T08:45:59.708Z,13.38
2022-10-06T08:48:30.035Z,14.60
2022-10-06T08:51:09.874Z,13.27
2022-10-06T08:53:47.134Z,15.23
2022-10-06T08:56:19.230Z,18.48
2022-10-06T08:58:54.464Z,12.65
2022-10-06T09:01:26.103Z,11.73
2022-10-06T09:04:01.928Z,14.82
2022-10-06T09:06:45.655Z,12.48
2022-10-06T09:09:36.157Z,15.48
2022-10-06T09:12:12.763Z,11.65
2022-10-06T09:14:45.343Z,11.60
2022-10-06T09:17:20.029Z,13.05
2022-10-06T09:19:54.987Z,11.82
2022-10-06T09:22:24.902Z,13.07
2022-10-06T09:24:58.315Z,13.05
2022-10-06T09:27:32.429Z,9.65
2022-10-06T09:30:02.584Z,11.27
2022-10-06T09:32:33.361Z,11.25
2022-10-06T09:35:04.546Z,9.80
2022-10-06T09:37:54.221Z,12.02
2022-10-06T09:40:36.631Z,10.40
2022-10-06T09:43:06.822Z,9.13
2022-10-06T09:45:34.899Z,13.00
2022-10-06T09:48:24.663Z,10.07
2022-10-06T09:51:09.248Z,10.40
2022-10-06T09:53:39.153Z,12.63
2022-10-06T09:56:15.330Z,10.65
2022-10-06T09:58:56.468Z,9.90
2022-10-06T10:01:27.301Z,8.95
2022-10-06T10:04:20.680Z,7.93
2022-10-06T10:06:49.105Z,10.32
2022-10-06T10:09:28.989Z,8.52
2022-10-06T10:12:31.287Z,8.85
2022-10-06T10:15:04.094Z,13.88
2022-10-06T10:17:49.228Z,8.57
2022-10-06T10:20:36.910Z,8.68
2022-10-06T10:23:18.504Z,10.45
2022-10-06T10:25:58.610Z,11.90
2022-10-06T10:28:51.703Z,8.93
2022-10-06T10:31:31.376Z,7.63
2022-10-06T10:34:23.934Z,6.38
2022-10-06T10:36:58.471Z,7.28
2022-10-06T10:39:34.760Z,12.88
2022-10-06T10:42:06.705Z,9.60
2022-10-06T10:44:38.819Z,9.23
2022-10-06T10:47:16.423Z,6.85
2022-10-06T10:49:49.576Z,8.40
2022-10-06T10:52:22.918Z,9.25
2022-10-06T10:55:04.518Z,8.27
2022-10-06T10:57:38.664Z,7.20
2022-10-06T11:00:09.730Z,9.00
2022-10-06T11:02:38.417Z,8.23
2022-10-06T11:05:16.451Z,8.50
2022-10-06T11:07:52.389Z,8.43
2022-10-06T11:10:24.410Z,5.72
2022-10-06T11:13:12.096Z,7.57
2022-10-06T11:15:52.003Z,6.20
2022-10-06T11:18:36.596Z,7.00
2022-10-06T11:21:11.617Z,6.10
2022-10-06T11:23:50.963Z,9.10
2022-10-06T11:26:35.978Z,8.93
2022-10-06T11:29:20.667Z,6.40
2022-10-06T11:32:02.570Z,11.05
2022-10-06T11:34:30.661Z,5.20
2022-10-06T11:37:07.642Z,7.15
2022-10-06T11:39:47.989Z,5.95
2022-10-06T11:42:23.893Z,4.85
2022-10-06T11:45:00.432Z,5.57
2022-10-06T11:47:36.210Z,4.78
2022-10-06T11:50:33.496Z,5.00
2022-10-06T11:53:03.079Z,7.03
2022-10-06T11:55:31.186Z,7.95
2022-10-06T11:58:40.768Z,5.60
2022-10-06T12:00:58.939Z,6.57
2022-10-06T12:04:07.556Z,7.03
2022-10-06T12:07:02.873Z,6.82
2022-10-06T12:09:53.027Z,5.32
2022-10-06T12:13:01.768Z,5.72
2022-10-06T12:17:06.074Z,6.72
2022-10-06T12:19:00.188Z,4.80
2022-10-06T12:21:44.976Z,7.13
2022-10-06T12:24:29.133Z,5.38
2022-10-06T12:27:23.440Z,8.20
2022-10-06T12:30:02.263Z,5.47
2022-10-06T12:32:46.887Z,5.95
2022-10-06T12:35:29.790Z,7.82
2022-10-06T12:38:00.555Z,4.75
2022-10-06T12:40:52.544Z,4.30
2022-10-06T12:43:53.881Z,9.50
2022-10-06T12:46:27.021Z,4.40
2022-10-06T12:49:08.746Z,7.15
2022-10-06T12:51:40.923Z,5.45
2022-10-06T12:54:20.391Z,7.05
2022-10-06T12:57:01.293Z,5.68
2022-10-06T12:59:32.091Z,5.65
2022-10-06T13:02:02.692Z,8.25
2022-10-06T13:04:37.659Z,6.32
2022-10-06T13:07:12.800Z,7.72
2022-10-06T13:09:41.784Z,4.60
2022-10-06T13:12:27.438Z,6.32
2022-10-06T13:15:27.924Z,5.28
2022-10-06T13:17:58.965Z,4.15
2022-10-06T13:20:40.496Z,10.68
2022-10-06T13:23:23.389Z,7.45
2022-10-06T13:25:55.542Z,5.00
2022-10-06T13:28:31.633Z,8.90
2022-10-06T13:33:39.247Z,5.63
2022-10-06T13:36:09.084Z,6.72
2022-10-06T13:38:38.913Z,4.63
2022-10-06T13:41:18.899Z,5.65
2022-10-06T13:43:51.181Z,6.75
2022-10-06T13:46:21.892Z,8.32
2022-10-06T13:48:53.796Z,7.35
2022-10-06T13:51:26.025Z,4.20
2022-10-06T13:53:54.475Z,3.88
2022-10-06T13:56:41.279Z,4.85
2022-10-06T13:59:29.546Z,6.43
2022-10-06T14:01:58.892Z,7.80
2022-10-06T14:04:26.910Z,5.95
2022-10-06T14:06:57.375Z,4.10
2022-10-06T14:09:27.784Z,5.88
2022-10-06T14:12:04.128Z,4.72
2022-10-06T14:14:34.379Z,5.57
2022-10-06T14:17:02.467Z,4.43
2022-10-06T14:19:34.886Z,6.55
2022-10-06T14:22:03.645Z,5.45
2022-10-06T14:24:34.239Z,4.72
2022-10-06T14:27:03.672Z,9.65
2022-10-06T14:29:34.215Z,5.78
2022-10-06T14:32:10.003Z,4.38
2022-10-06T14:34:38.438Z,4.97
2022-10-06T14:37:06.487Z,6.90
2022-10-06T14:39:34.443Z,6.82
2022-10-06T14:42:02.442Z,6.18
2022-10-06T14:44:33.856Z,5.22
2022-10-06T14:47:01.810Z,5.05
2022-10-06T14:49:29.794Z,6.03
2022-10-06T14:51:57.815Z,4.80
2022-10-06T14:54:25.768Z,7.65
2022-10-06T14:56:54.274Z,5.15
2022-10-06T14:59:22.837Z,9.27
2022-10-06T15:01:52.687Z,4.10
2022-10-06T15:04:24.341Z,6.53
2022-10-06T15:07:09.751Z,8.48
2022-10-06T15:09:37.802Z,8.38
2022-10-06T15:12:06.049Z,7.68
2022-10-06T15:14:39.405Z,7.55
2022-10-06T15:17:08.710Z,6.97
2022-10-06T15:19:36.684Z,5.70
2022-10-06T15:22:06.439Z,5.20
2022-10-06T15:24:34.474Z,9.90
2022-10-06T15:27:24.533Z,7.20
2022-10-06T15:29:53.000Z,6.93
2022-10-06T15:32:22.603Z,6.47
2022-10-06T15:34:52.394Z,8.95
2022-10-06T15:37:20.367Z,5.50
2022-10-06T15:39:48.448Z,4.35
2022-10-06T15:42:18.776Z,5.35
2022-10-06T15:44:51.397Z,6.68
2022-10-06T15:47:19.451Z,7.80
2022-10-06T15:49:51.556Z,7.25
2022-10-06T15:52:23.007Z,9.43
2022-10-06T15:54:51.975Z,4.78
2022-10-06T15:57:21.421Z,5.32
2022-10-06T15:59:49.832Z,10.30
2022-10-06T16:02:19.925Z,5.93
2022-10-06T16:05:25.373Z,4.45
2022-10-06T16:07:53.328Z,5.55
2022-10-06T16:10:21.254Z,5.20
2022-10-06T16:12:49.215Z,4.18
2022-10-06T16:15:17.326Z,6.63
2022-10-06T16:17:45.262Z,7.13
2022-10-06T16:20:16.637Z,6.95
2022-10-06T16:22:44.574Z,9.98
2022-10-06T16:25:12.733Z,5.50
2022-10-06T16:27:40.845Z,3.80
2022-10-06T16:30:10.401Z,7.63
2022-10-06T16:32:38.525Z,7.18
2022-10-06T16:35:07.786Z,7.82
2022-10-06T16:37:37.200Z,4.35
2022-10-06T16:40:06.072Z,7.43
2022-10-06T16:42:34.033Z,3.78
2022-10-06T16:45:01.993Z,9.02
2022-10-06T16:47:29.997Z,4.80
2022-10-06T16:49:57.984Z,6.78
2022-10-06T16:52:25.920Z,4.60
2022-10-06T16:54:56.163Z,5.05
2022-10-06T16:57:25.487Z,6.70
2022-10-06T16:59:53.455Z,4.45
2022-10-06T17:02:21.433Z,6.38
2022-10-06T17:04:49.428Z,9.43
2022-10-06T17:07:17.368Z,6.90
2022-10-06T17:09:56.024Z,6.32
2022-10-06T17:12:34.788Z,6.47
2022-10-06T17:15:02.883Z,7.43
2022-10-06T17:17:30.814Z,6.72
2022-10-06T17:19:58.793Z,5.72
2022-10-06T17:22:26.767Z,3.42
2022-10-06T17:24:56.136Z,4.35
2022-10-06T17:27:28.547Z,5.63
2022-10-06T17:29:57.865Z,10.30
2022-10-06T17:32:25.944Z,7.20
2022-10-06T17:34:55.312Z,7.18
2022-10-06T17:37:23.372Z,6.63
2022-10-06T17:39:51.345Z,5.53
2022-10-06T17:42:19.356Z,5.00
2022-10-06T17:44:47.273Z,5.57
2022-10-06T17:47:16.571Z,3.83
2022-10-06T17:49:44.892Z,4.85
2022-10-06T17:52:12.905Z,4.00
2022-10-06T17:54:41.624Z,5.70
2022-10-06T17:57:10.106Z,6.00
2022-10-06T17:59:38.221Z,5.18
2022-10-06T18:02:07.285Z,3.88
2022-10-06T18:04:38.031Z,7.22
2022-10-06T18:07:06.247Z,9.48
2022-10-06T18:09:34.212Z,6.28
2022-10-06T18:12:02.635Z,7.10
2022-10-06T18:14:33.562Z,7.28
2022-10-06T18:17:03.920Z,5.55
2022-10-06T18:19:34.001Z,5.20
2022-10-06T18:22:10.477Z,4.85
2022-10-06T18:24:39.993Z,4.80
2022-10-06T18:27:08.493Z,5.72
2022-10-06T18:29:39.072Z,3.92
2022-10-06T18:37:45.555Z,5.55
2022-10-06T18:40:14.794Z,5.63
2022-10-06T18:42:42.746Z,9.18
2022-10-06T18:45:34.275Z,6.43
2022-10-06T18:48:23.060Z,5.80
2022-10-06T18:51:00.519Z,5.72
2022-10-06T18:53:39.128Z,8.63
2022-10-06T18:56:08.792Z,6.80
2022-10-06T18:58:40.564Z,5.07
2022-10-06T19:01:09.136Z,5.38
2022-10-06T19:03:39.838Z,7.60
2022-10-06T19:06:08.941Z,8.48
2022-10-06T19:08:38.309Z,7.55
2022-10-06T19:11:25.102Z,8.95
2022-10-06T19:13:57.866Z,9.65
2022-10-06T19:16:26.151Z,7.30
2022-10-06T19:18:54.972Z,5.30
2022-10-06T19:21:22.941Z,7.63
2022-10-06T19:23:52.312Z,9.20
2022-10-06T19:26:22.769Z,9.02
2022-10-06T19:28:53.598Z,8.18
2022-10-06T19:31:22.396Z,7.07
2022-10-06T19:33:50.763Z,7.22
2022-10-06T19:36:18.777Z,11.30
2022-10-06T19:38:46.898Z,6.57
2022-10-06T19:41:33.640Z,6.57
2022-10-06T19:44:03.348Z,12.90
2022-10-06T19:46:31.631Z,10.45
2022-10-06T19:49:05.532Z,8.50
2022-10-06T19:51:34.566Z,9.70
2022-10-06T19:54:03.523Z,9.27
2022-10-06T19:56:33.297Z,6.82
2022-10-06T19:59:01.923Z,6.88
2022-10-06T20:01:31.264Z,6.78
2022-10-06T20:04:00.619Z,7.27
2022-10-06T20:06:30.477Z,8.87
2022-10-06T20:09:05.529Z,9.70
2022-10-06T20:11:36.041Z,6.57
2022-10-06T20:14:06.104Z,8.50
2022-10-06T20:16:34.317Z,7.50
2022-10-06T20:19:02.351Z,7.57
2022-10-06T20:21:31.411Z,8.93
2022-10-06T20:24:01.439Z,7.60
2022-10-06T20:26:32.800Z,9.68
2022-10-06T20:29:04.812Z,9.57
2022-10-06T20:31:35.183Z,8.18
2022-10-06T20:34:07.092Z,9.15
2022-10-06T20:36:36.711Z,7.87
2022-10-06T20:39:22.899Z,8.20
2022-10-06T20:41:51.184Z,9.38
2022-10-06T20:44:21.012Z,6.40
2022-10-06T20:46:48.959Z,7.90
2022-10-06T20:49:18.600Z,6.85
2022-10-06T20:51:51.456Z,8.70
2022-10-06T20:54:20.700Z,7.33
2022-10-06T20:56:50.183Z,9.00
2022-10-06T20:59:19.044Z,7.70
2022-10-06T21:01:51.118Z,8.43
2022-10-06T21:04:20.429Z,7.03
2022-10-06T21:06:48.836Z,7.63
2022-10-06T21:09:19.031Z,8.27
2022-10-06T21:11:48.189Z,8.30
2022-10-06T21:14:17.578Z,9.77
2022-10-06T21:16:47.213Z,7.10
2022-10-06T21:19:19.410Z,11.07
2022-10-06T21:21:50.731Z,6.80
2022-10-06T21:24:18.803Z,7.47
2022-10-06T21:26:47.042Z,7.47
2022-10-06T21:29:16.243Z,8.10
2022-10-06T21:31:45.256Z,8.47
2022-10-06T21:34:14.475Z,9.90
2022-10-06T21:36:44.472Z,8.10
2022-10-06T21:39:14.493Z,7.23
2022-10-06T21:41:42.486Z,9.47
2022-10-06T21:44:12.026Z,7.53
2022-10-06T21:46:41.712Z,7.37
2022-10-06T21:49:12.759Z,7.73
2022-10-06T21:51:44.116Z,8.53
2022-10-06T21:54:12.323Z,7.17
2022-10-06T21:56:41.112Z,10.43
2022-10-06T21:59:09.528Z,7.07
2022-10-06T22:01:39.202Z,8.13
2022-10-06T22:04:07.277Z,7.70
2022-10-06T22:06:37.635Z,7.67
2022-10-06T22:09:09.558Z,8.43
2022-10-06T22:11:39.924Z,8.63
2022-10-06T22:14:09.979Z,8.80
2022-10-06T22:16:40.877Z,7.63
2022-10-06T22:19:12.290Z,8.43
2022-10-06T22:21:42.510Z,7.00
2022-10-06T22:24:13.442Z,8.43
2022-10-06T22:26:43.149Z,7.67
2022-10-06T22:29:12.700Z,11.47
2022-10-06T22:31:43.255Z,10.80
2022-10-06T22:34:12.680Z,9.00
2022-10-06T22:36:41.186Z,6.97
2022-10-06T22:39:09.567Z,7.23
2022-10-06T22:41:39.022Z,8.13
2022-10-06T22:44:07.106Z,7.63
2022-10-06T22:46:37.341Z,7.00
2022-10-06T22:49:06.382Z,7.63
2022-10-06T22:51:34.620Z,7.67
2022-10-06T22:54:02.976Z,8.17
2022-10-06T22:56:32.703Z,7.03
2022-10-06T22:59:03.012Z,8.27
2022-10-06T23:01:31.402Z,8.70
2022-10-06T23:03:59.607Z,9.10
2022-10-06T23:06:29.831Z,8.13
2022-10-06T23:08:58.131Z,7.57
2022-10-06T23:11:26.425Z,7.27
2022-10-06T23:13:54.400Z,8.40
2022-10-06T23:16:24.124Z,8.50
2022-10-06T23:18:52.417Z,8.67
2022-10-06T23:21:22.720Z,8.57
2022-10-06T23:23:52.786Z,9.40
2022-10-06T23:26:22.027Z,8.40
2022-10-06T23:28:53.255Z,9.00
2022-10-06T23:31:21.278Z,7.83
2022-10-06T23:33:50.812Z,11.20
2022-10-06T23:36:19.524Z,11.90
2022-10-06T23:38:48.168Z,10.47
2022-10-06T23:41:16.846Z,10.20
2022-10-06T23:43:45.046Z,8.30
2022-10-06T23:46:13.391Z,9.60
2022-10-06T23:48:41.477Z,8.63
2022-10-06T23:51:12.855Z,11.63
2022-10-06T23:53:41.222Z,9.33
2022-10-06T23:56:09.525Z,10.03
2022-10-06T23:58:38.135Z,8.67
